Terminal Aerodrome Forecast
Issued by NWS

Home | Current Version | Previous Version | Text Only | Print | Product List | Glossary On
Versions: 1 2 3 4 5 6 7 8 9 10 11 12 13 14 15
000
FTUS43 KILX 302300
TAFDEC
TAF
KDEC 302324Z 3100/3124 VRB05KT P6SM SCT025 OVC050
      TEMPO 3100/3102 6SM -RA BKN025
     FM310200 VRB05KT P6SM BKN050
     FM311000 34014KT P6SM VCSH SCT015 OVC035
     FM311300 34020G30KT P6SM SCT040=

USA.gov is the U.S. government's official web portal to all federal, state and local government web resources and services.